createdAt,value
2022-11-05T00:00:30.605Z,2.45
2022-11-05T00:01:21.330Z,2.13
2022-11-05T00:02:11.683Z,2.30
2022-11-05T00:03:03.368Z,2.20
2022-11-05T00:03:53.813Z,2.00
2022-11-05T00:04:44.223Z,2.10
2022-11-05T00:05:34.457Z,2.10
2022-11-05T00:06:27.646Z,2.22
2022-11-05T00:07:39.166Z,1.90
2022-11-05T00:08:29.633Z,1.80
2022-11-05T00:09:19.665Z,2.20
2022-11-05T00:09:59.215Z,1.83
2022-11-05T00:10:34.328Z,2.25
2022-11-05T00:11:06.155Z,2.35
2022-11-05T00:11:56.476Z,2.25
2022-11-05T00:12:47.071Z,2.25
2022-11-05T00:13:37.782Z,2.25
2022-11-05T00:14:28.317Z,1.80
2022-11-05T00:15:18.685Z,2.35
2022-11-05T00:16:09.111Z,1.90
2022-11-05T00:16:44.850Z,2.20
2022-11-05T00:17:16.630Z,2.10
2022-11-05T00:17:49.753Z,1.85
2022-11-05T00:18:22.502Z,2.10
2022-11-05T00:19:06.471Z,2.22
2022-11-05T00:19:38.449Z,1.92
2022-11-05T00:20:13.401Z,2.15
2022-11-05T00:20:45.310Z,2.22
2022-11-05T00:21:32.012Z,2.28
2022-11-05T00:22:22.197Z,1.85
2022-11-05T00:23:18.691Z,3.05
2022-11-05T00:24:14.319Z,2.15
2022-11-05T00:25:05.151Z,2.83
2022-11-05T00:25:37.935Z,2.50
2022-11-05T00:26:11.420Z,2.10
2022-11-05T00:26:43.192Z,1.73
2022-11-05T00:27:15.922Z,2.38
2022-11-05T00:27:49.512Z,2.25
2022-11-05T00:28:21.402Z,2.10
2022-11-05T00:28:54.396Z,2.20
2022-11-05T00:29:26.222Z,2.20
2022-11-05T00:29:58.006Z,1.88
2022-11-05T00:30:31.564Z,3.42
2022-11-05T00:31:05.473Z,2.28
2022-11-05T00:31:37.426Z,2.42
2022-11-05T00:32:09.210Z,2.40
2022-11-05T00:32:41.987Z,2.20
2022-11-05T00:33:15.211Z,2.20
2022-11-05T00:33:47.978Z,2.60
2022-11-05T00:34:19.757Z,2.05
2022-11-05T00:34:51.600Z,2.10
2022-11-05T00:35:24.386Z,1.95
2022-11-05T00:35:56.185Z,2.40
2022-11-05T00:36:28.015Z,2.03
2022-11-05T00:37:00.783Z,2.50
2022-11-05T00:37:32.581Z,2.20
2022-11-05T00:38:05.394Z,2.17
2022-11-05T00:38:37.547Z,2.35
2022-11-05T00:39:09.451Z,2.40
2022-11-05T00:39:41.212Z,2.55
2022-11-05T00:40:15.416Z,2.35
2022-11-05T00:40:47.333Z,2.30
2022-11-05T00:41:19.152Z,2.17
2022-11-05T00:42:11.136Z,2.00
2022-11-05T00:43:13.974Z,2.30
2022-11-05T00:44:15.837Z,2.22
2022-11-05T00:45:00.774Z,2.35
2022-11-05T00:45:33.591Z,2.55
2022-11-05T00:46:05.672Z,2.50
2022-11-05T00:46:37.463Z,3.55
2022-11-05T00:47:27.925Z,2.72
2022-11-05T00:48:18.472Z,2.25
2022-11-05T00:49:10.251Z,2.63
2022-11-05T00:49:42.069Z,2.25
2022-11-05T00:50:15.146Z,2.13
2022-11-05T00:50:46.928Z,2.70
2022-11-05T00:51:19.712Z,2.75
2022-11-05T00:52:11.558Z,1.80
2022-11-05T00:52:55.536Z,2.40
2022-11-05T00:53:28.391Z,2.30
2022-11-05T00:54:00.214Z,2.20
2022-11-05T00:54:32.089Z,2.28
2022-11-05T00:55:04.507Z,2.97
2022-11-05T00:55:39.232Z,2.60
2022-11-05T00:56:11.062Z,2.40
2022-11-05T00:56:42.867Z,2.50
2022-11-05T00:57:14.716Z,2.58
2022-11-05T00:57:47.477Z,2.67
2022-11-05T00:58:21.194Z,2.28
2022-11-05T00:58:53.950Z,3.30
2022-11-05T00:59:25.754Z,3.08
2022-11-05T00:59:57.531Z,3.45
2022-11-05T01:00:32.230Z,2.90
2022-11-05T01:01:04.342Z,2.40
2022-11-05T01:01:37.263Z,2.70
2022-11-05T01:02:09.257Z,2.50
2022-11-05T01:02:41.808Z,2.58
2022-11-05T01:03:17.006Z,2.83
2022-11-05T01:03:51.692Z,2.50
2022-11-05T01:04:25.310Z,2.40
2022-11-05T01:04:57.187Z,2.70
2022-11-05T01:05:30.614Z,2.65
2022-11-05T01:06:08.427Z,2.90
2022-11-05T01:06:41.204Z,2.55
2022-11-05T01:07:13.003Z,2.15
2022-11-05T01:07:44.938Z,2.45
2022-11-05T01:08:19.659Z,2.60
2022-11-05T01:08:51.423Z,2.67
2022-11-05T01:09:23.207Z,2.70
2022-11-05T01:09:55.003Z,2.42
2022-11-05T01:10:28.326Z,2.53
2022-11-05T01:11:00.206Z,2.28
2022-11-05T01:11:35.219Z,2.95
2022-11-05T01:12:08.148Z,2.45
2022-11-05T01:12:39.967Z,2.55
2022-11-05T01:13:13.431Z,2.58
2022-11-05T01:13:46.381Z,2.10
2022-11-05T01:14:18.147Z,2.42
2022-11-05T01:14:49.979Z,2.30
2022-11-05T01:15:22.216Z,2.63
2022-11-05T01:15:55.146Z,2.83
2022-11-05T01:16:26.997Z,2.70
2022-11-05T01:16:58.903Z,4.28
2022-11-05T01:17:30.711Z,3.28
2022-11-05T01:18:03.677Z,2.70
2022-11-05T01:18:37.139Z,3.20
2022-11-05T01:19:11.250Z,2.95
2022-11-05T01:19:44.430Z,2.33
2022-11-05T01:20:16.511Z,3.00
2022-11-05T01:20:49.604Z,2.75
2022-11-05T01:21:21.421Z,3.15
2022-11-05T01:21:53.193Z,2.72
2022-11-05T01:22:25.996Z,2.55
2022-11-05T01:22:58.238Z,2.95
2022-11-05T01:23:30.033Z,2.60
2022-11-05T01:24:03.618Z,2.78
2022-11-05T01:24:35.451Z,2.47
2022-11-05T01:25:08.788Z,3.00
2022-11-05T01:25:41.631Z,3.03
2022-11-05T01:26:13.421Z,2.90
2022-11-05T01:26:45.186Z,2.50
2022-11-05T01:27:17.017Z,2.72
2022-11-05T01:27:49.886Z,2.90
2022-11-05T01:28:21.806Z,2.47
2022-11-05T01:28:53.832Z,2.30
2022-11-05T01:29:26.646Z,2.33
2022-11-05T01:29:58.444Z,2.50
2022-11-05T01:30:30.840Z,2.10
2022-11-05T01:31:03.702Z,5.55
2022-11-05T01:31:41.254Z,3.20
2022-11-05T01:32:13.058Z,3.53
2022-11-05T01:32:45.953Z,3.28
2022-11-05T01:33:17.919Z,2.80
2022-11-05T01:33:50.594Z,2.50
2022-11-05T01:34:23.373Z,3.13
2022-11-05T01:34:56.555Z,2.50
2022-11-05T01:35:29.303Z,3.10
2022-11-05T01:36:01.160Z,2.75
2022-11-05T01:36:33.931Z,2.65
2022-11-05T01:37:05.751Z,2.75
2022-11-05T01:37:37.562Z,3.08
2022-11-05T01:38:10.323Z,2.75
2022-11-05T01:38:42.136Z,2.97
2022-11-05T01:39:14.167Z,2.90
2022-11-05T01:39:47.002Z,2.65
2022-11-05T01:40:21.724Z,3.13
2022-11-05T01:40:53.538Z,2.60
2022-11-05T01:41:26.338Z,2.88
2022-11-05T01:41:58.739Z,2.30
2022-11-05T01:42:32.523Z,2.90
2022-11-05T01:43:15.136Z,3.03
2022-11-05T01:43:49.045Z,2.78
2022-11-05T01:44:51.640Z,2.30
2022-11-05T01:45:25.918Z,3.00
2022-11-05T01:45:58.786Z,2.70
2022-11-05T01:46:34.400Z,3.00
2022-11-05T01:47:06.247Z,2.75
2022-11-05T01:48:03.841Z,3.38
2022-11-05T01:48:36.101Z,2.90
2022-11-05T01:49:14.157Z,2.85
2022-11-05T01:49:46.121Z,2.90
2022-11-05T01:50:36.700Z,2.83
2022-11-05T01:51:11.890Z,2.83
2022-11-05T01:51:45.831Z,2.40
2022-11-05T01:52:19.560Z,2.80
2022-11-05T01:52:56.096Z,2.80
2022-11-05T01:53:32.320Z,2.53
2022-11-05T01:54:09.819Z,3.72
2022-11-05T01:54:41.720Z,2.55
2022-11-05T01:55:14.522Z,2.67
2022-11-05T01:55:52.496Z,2.50
2022-11-05T01:56:29.926Z,2.80
2022-11-05T01:57:07.220Z,2.75
2022-11-05T01:57:40.107Z,3.47
2022-11-05T01:58:14.692Z,2.58
2022-11-05T01:58:52.143Z,3.28
2022-11-05T01:59:29.311Z,2.80
2022-11-05T02:00:02.102Z,2.60
2022-11-05T02:00:34.456Z,2.60
2022-11-05T02:01:07.273Z,2.75
2022-11-05T02:01:39.203Z,2.78
2022-11-05T02:02:11.355Z,2.45
2022-11-05T02:02:44.865Z,3.35
2022-11-05T02:03:18.414Z,2.80
2022-11-05T02:03:53.415Z,2.70
2022-11-05T02:04:31.700Z,2.00
2022-11-05T02:05:06.524Z,2.40
2022-11-05T02:05:40.737Z,2.63
2022-11-05T02:06:15.869Z,3.10
2022-11-05T02:06:47.761Z,3.20
2022-11-05T02:07:20.613Z,2.50
2022-11-05T02:07:54.455Z,2.50
2022-11-05T02:08:43.894Z,2.45
2022-11-05T02:09:20.581Z,3.10
2022-11-05T02:10:00.093Z,3.25
2022-11-05T02:10:32.960Z,2.55
2022-11-05T02:11:05.827Z,2.47
2022-11-05T02:11:38.704Z,2.95
2022-11-05T02:12:12.861Z,3.08
2022-11-05T02:12:46.826Z,4.15
2022-11-05T02:13:19.669Z,2.40
2022-11-05T02:13:51.878Z,2.80
2022-11-05T02:14:23.944Z,2.17
2022-11-05T02:14:57.370Z,2.58
2022-11-05T02:15:39.940Z,2.20
2022-11-05T02:16:19.546Z,2.65
2022-11-05T02:16:56.336Z,2.67
2022-11-05T02:17:39.406Z,2.75
2022-11-05T02:18:20.980Z,2.55
2022-11-05T02:19:04.359Z,3.42
2022-11-05T02:20:01.002Z,2.30
2022-11-05T02:20:39.829Z,2.35
2022-11-05T02:21:41.444Z,2.55
2022-11-05T02:22:31.721Z,2.42
2022-11-05T02:23:40.996Z,2.67
2022-11-05T02:24:41.471Z,2.92
2022-11-05T02:25:40.678Z,2.03
2022-11-05T02:26:39.558Z,2.50
2022-11-05T02:27:18.864Z,2.33
2022-11-05T02:28:28.376Z,2.42
2022-11-05T02:29:36.232Z,2.33
2022-11-05T02:30:31.597Z,2.50
2022-11-05T02:31:12.587Z,1.95
2022-11-05T02:31:49.709Z,1.58
2022-11-05T02:32:32.860Z,2.25
2022-11-05T02:33:26.051Z,2.17
2022-11-05T02:34:04.340Z,1.70
2022-11-05T02:34:45.959Z,2.03
2022-11-05T02:35:31.728Z,2.88
2022-11-05T02:36:25.249Z,2.65
2022-11-05T02:37:08.727Z,2.60
2022-11-05T02:37:45.726Z,2.60
2022-11-05T02:38:23.007Z,2.08
2022-11-05T02:39:06.986Z,2.50
2022-11-05T02:39:47.076Z,2.25
2022-11-05T02:40:26.067Z,2.08
2022-11-05T02:41:07.489Z,2.22
2022-11-05T02:41:48.967Z,2.40
2022-11-05T02:42:30.133Z,2.40
2022-11-05T02:43:15.961Z,2.10
2022-11-05T02:43:59.166Z,2.20
2022-11-05T02:44:39.216Z,1.98
2022-11-05T02:45:22.326Z,2.35
2022-11-05T02:46:04.382Z,2.10
2022-11-05T02:46:45.023Z,1.65
2022-11-05T02:47:25.809Z,2.08
2022-11-05T02:48:07.287Z,1.80
2022-11-05T02:48:46.221Z,3.38
2022-11-05T02:49:27.869Z,2.30
2022-11-05T02:50:10.176Z,2.45
2022-11-05T02:50:50.076Z,2.10
2022-11-05T02:51:28.515Z,2.17
2022-11-05T02:52:06.312Z,2.20
2022-11-05T02:52:46.040Z,1.90
2022-11-05T02:53:25.175Z,2.20
2022-11-05T02:54:03.401Z,2.70
2022-11-05T02:54:40.672Z,2.58
2022-11-05T02:55:18.578Z,2.15
2022-11-05T02:55:55.406Z,1.88
2022-11-05T02:56:33.130Z,2.47
2022-11-05T02:57:06.143Z,2.25
2022-11-05T02:57:43.671Z,2.30
2022-11-05T02:58:16.442Z,2.40
2022-11-05T02:58:48.293Z,2.28
2022-11-05T02:59:20.082Z,2.20
2022-11-05T03:00:01.848Z,3.35
2022-11-05T03:00:43.772Z,2.30
2022-11-05T03:01:18.227Z,1.75
2022-11-05T03:01:52.195Z,2.20
2022-11-05T03:02:24.193Z,2.17
2022-11-05T03:02:56.136Z,2.42
2022-11-05T03:03:34.304Z,1.92
2022-11-05T03:04:09.836Z,2.35
2022-11-05T03:04:42.723Z,2.30
2022-11-05T03:05:14.609Z,2.35
2022-11-05T03:05:55.711Z,2.03
2022-11-05T03:06:54.354Z,2.17
2022-11-05T03:07:33.879Z,1.95
2022-11-05T03:08:14.348Z,2.25
2022-11-05T03:09:06.935Z,1.75
2022-11-05T03:09:51.824Z,2.30
2022-11-05T03:10:42.038Z,1.75
2022-11-05T03:11:16.320Z,2.03
2022-11-05T03:11:59.727Z,1.83
2022-11-05T03:12:39.534Z,2.15
2022-11-05T03:13:17.809Z,2.67
2022-11-05T03:13:54.142Z,2.40
2022-11-05T03:14:39.396Z,2.10
2022-11-05T03:15:21.175Z,2.17
2022-11-05T03:15:57.231Z,2.00
2022-11-05T03:16:39.654Z,2.13
2022-11-05T03:17:19.604Z,1.80
2022-11-05T03:18:00.901Z,1.60
2022-11-05T03:18:42.184Z,2.25
2022-11-05T03:19:19.846Z,2.05
2022-11-05T03:20:01.187Z,2.03
2022-11-05T03:20:37.642Z,2.10
2022-11-05T03:21:14.834Z,2.35
2022-11-05T03:21:53.229Z,2.05
2022-11-05T03:22:28.998Z,1.83
2022-11-05T03:23:09.397Z,2.25
2022-11-05T03:23:47.239Z,2.13
2022-11-05T03:24:23.504Z,2.35
2022-11-05T03:25:00.466Z,2.15
2022-11-05T03:25:40.168Z,1.90
2022-11-05T03:26:18.026Z,2.53
2022-11-05T03:26:56.470Z,2.33
2022-11-05T03:27:32.676Z,2.60
2022-11-05T03:28:08.621Z,1.80
2022-11-05T03:28:44.041Z,2.28
2022-11-05T03:29:22.110Z,2.00
2022-11-05T03:30:00.273Z,1.88
2022-11-05T03:30:35.056Z,2.13
2022-11-05T03:31:08.298Z,1.95
2022-11-05T03:31:44.444Z,1.90
2022-11-05T03:32:20.477Z,2.03
2022-11-05T03:33:04.323Z,1.88
2022-11-05T03:33:40.083Z,2.00
2022-11-05T03:34:14.875Z,2.17
2022-11-05T03:34:49.888Z,2.22
2022-11-05T03:35:26.583Z,2.20
2022-11-05T03:36:03.227Z,2.30
2022-11-05T03:36:41.106Z,2.10
2022-11-05T03:37:16.148Z,2.85
2022-11-05T03:37:51.052Z,1.77
2022-11-05T03:38:27.434Z,2.08
2022-11-05T03:39:06.011Z,2.20
2022-11-05T03:39:41.591Z,2.60
2022-11-05T03:40:16.547Z,2.50
2022-11-05T03:40:53.547Z,2.60
2022-11-05T03:41:26.954Z,3.20
2022-11-05T03:42:00.124Z,1.90
2022-11-05T03:42:36.472Z,2.50
2022-11-05T03:43:09.657Z,2.13
2022-11-05T03:43:46.779Z,2.22
2022-11-05T03:44:24.529Z,1.83
2022-11-05T03:45:00.152Z,2.35
2022-11-05T03:45:36.589Z,2.03
2022-11-05T03:46:12.932Z,2.83
2022-11-05T03:46:49.255Z,1.70
2022-11-05T03:47:25.844Z,2.20
2022-11-05T03:48:01.455Z,2.22
2022-11-05T03:48:38.879Z,2.60
2022-11-05T03:49:17.132Z,2.30
2022-11-05T03:49:56.464Z,2.22
2022-11-05T03:50:40.066Z,2.28
2022-11-05T03:51:19.763Z,2.10
2022-11-05T03:51:57.072Z,2.65
2022-11-05T03:52:37.205Z,2.45
2022-11-05T03:53:14.634Z,2.22
2022-11-05T03:53:50.156Z,2.15
2022-11-05T03:54:23.795Z,2.17
2022-11-05T03:54:56.059Z,2.20
2022-11-05T03:55:33.884Z,2.65
2022-11-05T03:56:11.497Z,2.33
2022-11-05T03:56:51.631Z,2.88
2022-11-05T03:57:27.640Z,2.20
2022-11-05T03:58:00.944Z,2.35
2022-11-05T03:58:33.119Z,1.90
2022-11-05T03:59:07.223Z,2.10
2022-11-05T03:59:42.998Z,2.10
2022-11-05T04:00:15.416Z,2.25
2022-11-05T04:00:48.179Z,2.15
2022-11-05T04:01:21.115Z,2.05
2022-11-05T04:01:54.982Z,2.08
2022-11-05T04:02:27.661Z,1.45
2022-11-05T04:02:59.593Z,2.15
2022-11-05T04:03:36.025Z,2.88
2022-11-05T04:04:08.946Z,2.15
2022-11-05T04:04:41.527Z,2.10
2022-11-05T04:05:13.544Z,2.90
2022-11-05T04:06:07.174Z,2.10
2022-11-05T04:06:57.568Z,1.83
2022-11-05T04:07:48.127Z,2.25
2022-11-05T04:08:38.527Z,2.25
2022-11-05T04:09:29.396Z,1.85
2022-11-05T04:10:19.877Z,2.40
2022-11-05T04:11:10.419Z,2.05
2022-11-05T04:12:00.695Z,2.25
2022-11-05T04:12:51.111Z,2.45
2022-11-05T04:13:27.581Z,1.70
2022-11-05T04:13:59.364Z,2.38
2022-11-05T04:14:31.294Z,2.25
2022-11-05T04:15:04.575Z,1.95
2022-11-05T04:15:51.245Z,2.30
2022-11-05T04:16:41.309Z,2.58
2022-11-05T04:17:14.467Z,2.10
2022-11-05T04:17:46.236Z,2.33
2022-11-05T04:18:18.024Z,2.20
2022-11-05T04:18:50.791Z,2.60
2022-11-05T04:19:37.479Z,2.50
2022-11-05T04:20:28.103Z,2.65
2022-11-05T04:21:18.615Z,2.78
2022-11-05T04:22:11.211Z,2.40
2022-11-05T04:23:01.309Z,2.50
2022-11-05T04:23:51.915Z,2.42
2022-11-05T04:24:24.690Z,2.90
2022-11-05T04:24:56.492Z,2.55
2022-11-05T04:25:28.335Z,2.72
2022-11-05T04:26:01.052Z,3.30
2022-11-05T04:26:32.838Z,4.97
2022-11-05T04:27:04.670Z,15.30
2022-11-05T04:27:38.117Z,4.30
2022-11-05T04:28:09.900Z,4.25
2022-11-05T04:29:06.774Z,4.00
2022-11-05T04:29:57.968Z,3.13
2022-11-05T04:30:29.780Z,2.45
2022-11-05T04:31:01.565Z,2.15
2022-11-05T04:31:33.361Z,2.80
2022-11-05T04:32:06.574Z,2.00
2022-11-05T04:32:39.745Z,2.70
2022-11-05T04:33:13.657Z,2.90
2022-11-05T04:33:46.790Z,3.00
2022-11-05T04:34:18.938Z,2.65
2022-11-05T04:34:50.756Z,2.55
2022-11-05T04:35:23.626Z,2.50
2022-11-05T04:35:55.408Z,2.58
2022-11-05T04:36:27.581Z,2.70
2022-11-05T04:37:00.319Z,2.20
2022-11-05T04:37:32.130Z,2.33
2022-11-05T04:38:05.952Z,2.42
2022-11-05T04:38:37.796Z,2.53
2022-11-05T04:39:09.593Z,2.20
2022-11-05T04:39:42.379Z,2.58
2022-11-05T04:40:14.252Z,2.42
2022-11-05T04:40:48.280Z,3.03
2022-11-05T04:41:20.241Z,2.80
2022-11-05T04:41:52.017Z,2.95
2022-11-05T04:42:24.761Z,2.70
2022-11-05T04:42:57.061Z,2.85
2022-11-05T04:43:28.849Z,2.40
2022-11-05T04:44:02.309Z,3.00
2022-11-05T04:44:34.160Z,2.33
2022-11-05T04:45:07.449Z,3.17
2022-11-05T04:45:39.341Z,2.90
2022-11-05T04:46:11.336Z,3.15
2022-11-05T04:46:44.277Z,2.70
2022-11-05T04:47:16.076Z,2.95
2022-11-05T04:47:49.433Z,2.83
2022-11-05T04:48:22.193Z,2.75
2022-11-05T04:48:54.016Z,2.53
2022-11-05T04:49:25.788Z,2.47
2022-11-05T04:49:58.568Z,2.70
2022-11-05T04:50:31.245Z,3.15
2022-11-05T04:51:03.585Z,2.65
2022-11-05T04:51:36.377Z,3.20
2022-11-05T04:52:08.207Z,3.00
2022-11-05T04:52:40.419Z,3.00
2022-11-05T04:53:13.618Z,3.38
2022-11-05T04:53:45.596Z,2.80
2022-11-05T04:54:17.705Z,2.90
2022-11-05T04:54:49.487Z,3.10
2022-11-05T04:55:22.647Z,2.67
2022-11-05T04:55:54.590Z,2.40
2022-11-05T04:56:26.558Z,3.38
2022-11-05T04:56:59.389Z,3.05
2022-11-05T04:57:31.242Z,3.00
2022-11-05T04:58:03.052Z,2.88
2022-11-05T04:58:38.987Z,2.95
2022-11-05T04:59:10.851Z,3.03
2022-11-05T04:59:42.607Z,3.60
2022-11-05T05:00:15.539Z,3.70
2022-11-05T05:00:49.849Z,3.28
2022-11-05T05:01:25.214Z,2.83
2022-11-05T05:01:57.173Z,3.45
2022-11-05T05:02:29.081Z,2.85
2022-11-05T05:03:03.247Z,3.85
2022-11-05T05:03:35.111Z,3.28
2022-11-05T05:04:06.896Z,3.10
2022-11-05T05:04:39.671Z,2.97
2022-11-05T05:05:11.740Z,3.10
2022-11-05T05:05:44.528Z,3.33
2022-11-05T05:06:17.200Z,2.95
2022-11-05T05:06:49.042Z,3.50
2022-11-05T05:07:21.822Z,3.28
2022-11-05T05:07:53.617Z,3.70
2022-11-05T05:08:25.387Z,2.92
2022-11-05T05:08:58.182Z,3.20
2022-11-05T05:09:29.994Z,3.15
2022-11-05T05:10:03.917Z,2.90
2022-11-05T05:10:36.727Z,3.05
2022-11-05T05:11:10.983Z,2.90
2022-11-05T05:11:43.787Z,2.88
2022-11-05T05:12:15.647Z,2.67
2022-11-05T05:12:48.392Z,2.67
2022-11-05T05:13:21.178Z,3.10
2022-11-05T05:13:52.975Z,3.08
2022-11-05T05:14:24.825Z,3.00
2022-11-05T05:14:57.554Z,2.80
2022-11-05T05:15:29.342Z,4.15
2022-11-05T05:16:05.305Z,2.65
2022-11-05T05:16:38.082Z,3.35
2022-11-05T05:17:10.126Z,3.22
2022-11-05T05:17:41.956Z,3.13
2022-11-05T05:18:15.113Z,3.50
2022-11-05T05:18:47.918Z,3.10
2022-11-05T05:19:19.741Z,3.47
2022-11-05T05:20:10.363Z,3.67
2022-11-05T05:21:00.776Z,3.50
2022-11-05T05:21:38.506Z,3.80
2022-11-05T05:22:11.002Z,3.95
2022-11-05T05:22:43.775Z,3.55
2022-11-05T05:23:15.554Z,4.05
2022-11-05T05:23:48.321Z,3.50
2022-11-05T05:24:24.797Z,3.65
2022-11-05T05:24:56.686Z,3.40
2022-11-05T05:25:28.587Z,3.78
2022-11-05T05:26:01.382Z,3.45
2022-11-05T05:26:33.177Z,3.22
2022-11-05T05:27:04.951Z,3.10
2022-11-05T05:27:37.712Z,3.40
2022-11-05T05:28:09.566Z,3.35
2022-11-05T05:28:41.334Z,3.28
2022-11-05T05:29:14.621Z,3.30
2022-11-05T05:29:46.447Z,2.88
2022-11-05T05:30:18.737Z,2.90
2022-11-05T05:30:56.146Z,3.78
2022-11-05T05:31:30.438Z,4.00
2022-11-05T05:32:03.243Z,3.25
2022-11-05T05:32:35.056Z,3.13
2022-11-05T05:33:06.896Z,3.20
2022-11-05T05:33:40.979Z,3.38
2022-11-05T05:34:14.437Z,3.40
2022-11-05T05:34:46.272Z,3.88
2022-11-05T05:35:19.060Z,2.80
2022-11-05T05:35:50.858Z,2.60
2022-11-05T05:36:23.407Z,3.50
2022-11-05T05:36:56.132Z,3.13
2022-11-05T05:37:27.904Z,3.28
2022-11-05T05:37:59.763Z,3.78
2022-11-05T05:38:32.503Z,5.78
2022-11-05T05:39:06.227Z,5.95
2022-11-05T05:39:38.073Z,6.88
2022-11-05T05:40:12.094Z,6.30
2022-11-05T05:40:43.987Z,4.90
2022-11-05T05:41:15.956Z,7.22
2022-11-05T05:41:48.732Z,6.53
2022-11-05T05:42:22.749Z,13.00
2022-11-05T05:42:55.153Z,8.02
2022-11-05T05:43:31.315Z,6.00
2022-11-05T05:44:05.217Z,5.15
2022-11-05T05:44:37.083Z,4.82
2022-11-05T05:45:10.469Z,3.80
2022-11-05T05:45:42.512Z,3.67
2022-11-05T05:46:15.843Z,3.35
2022-11-05T05:46:48.608Z,3.30
2022-11-05T05:47:20.441Z,3.00
2022-11-05T05:47:54.487Z,3.30
2022-11-05T05:48:27.206Z,3.97
2022-11-05T05:49:00.346Z,3.15
2022-11-05T05:49:32.258Z,3.00
2022-11-05T05:50:05.543Z,2.72
2022-11-05T05:50:37.336Z,2.92
2022-11-05T05:51:10.967Z,3.08
2022-11-05T05:51:43.739Z,3.70
2022-11-05T05:52:15.516Z,3.40
2022-11-05T05:52:47.330Z,3.60
2022-11-05T05:53:20.115Z,3.83
2022-11-05T05:53:53.664Z,3.65
2022-11-05T05:54:30.880Z,4.05
2022-11-05T05:55:06.111Z,3.88
2022-11-05T05:55:37.910Z,3.55
2022-11-05T05:56:09.726Z,3.65
2022-11-05T05:56:44.222Z,3.83
2022-11-05T05:57:16.020Z,3.40
2022-11-05T05:57:47.867Z,3.42
2022-11-05T05:58:20.623Z,3.95
2022-11-05T05:58:52.444Z,3.30
2022-11-05T05:59:24.255Z,3.50
2022-11-05T05:59:57.036Z,3.60
2022-11-05T06:00:28.838Z,3.85
2022-11-05T06:01:01.748Z,3.95
2022-11-05T06:01:34.655Z,3.65
2022-11-05T06:02:06.665Z,3.53
2022-11-05T06:02:38.933Z,3.72
2022-11-05T06:03:12.185Z,4.40
2022-11-05T06:03:44.271Z,3.42
2022-11-05T06:04:17.416Z,4.00
2022-11-05T06:04:50.224Z,3.85
2022-11-05T06:05:22.032Z,4.50
2022-11-05T06:05:53.819Z,3.10
2022-11-05T06:06:26.602Z,3.33
2022-11-05T06:06:58.452Z,3.28
2022-11-05T06:07:34.528Z,3.95
2022-11-05T06:08:10.188Z,3.95
2022-11-05T06:08:42.356Z,3.60
2022-11-05T06:09:15.854Z,3.65
2022-11-05T06:09:47.647Z,3.83
2022-11-05T06:10:19.414Z,3.30
2022-11-05T06:10:52.595Z,4.45
2022-11-05T06:11:25.292Z,3.42
2022-11-05T06:11:58.109Z,4.70
2022-11-05T06:12:30.257Z,4.07
2022-11-05T06:13:02.635Z,3.20
2022-11-05T06:13:36.578Z,3.60
2022-11-05T06:14:10.619Z,3.80
2022-11-05T06:14:42.538Z,4.13
2022-11-05T06:15:15.430Z,3.75
2022-11-05T06:15:47.407Z,4.30
2022-11-05T06:16:19.419Z,3.10
2022-11-05T06:16:52.151Z,3.83
2022-11-05T06:17:24.073Z,3.78
2022-11-05T06:17:55.860Z,4.00
2022-11-05T06:18:28.711Z,4.65
2022-11-05T06:19:00.489Z,3.70
2022-11-05T06:19:33.603Z,4.45
2022-11-05T06:20:08.768Z,4.35
2022-11-05T06:20:40.839Z,4.50
2022-11-05T06:21:15.795Z,4.50
2022-11-05T06:21:47.594Z,4.05
2022-11-05T06:22:19.399Z,4.50
2022-11-05T06:22:55.943Z,4.10
2022-11-05T06:23:27.745Z,4.70
2022-11-05T06:24:01.426Z,4.53
2022-11-05T06:24:33.207Z,4.25
2022-11-05T06:25:06.224Z,3.92
2022-11-05T06:25:41.442Z,4.03
2022-11-05T06:26:15.491Z,4.43
2022-11-05T06:26:48.280Z,4.15
2022-11-05T06:27:20.074Z,4.63
2022-11-05T06:27:52.987Z,5.57
2022-11-05T06:28:25.746Z,3.72
2022-11-05T06:28:57.665Z,4.18
2022-11-05T06:29:29.456Z,4.35
2022-11-05T06:30:02.221Z,4.53
2022-11-05T06:30:34.039Z,3.95
2022-11-05T06:31:05.925Z,4.63
2022-11-05T06:31:38.688Z,4.50
2022-11-05T06:32:10.469Z,4.53
2022-11-05T06:32:42.299Z,4.95
2022-11-05T06:33:14.181Z,4.85
2022-11-05T06:33:47.630Z,4.65
2022-11-05T06:34:19.442Z,5.15
2022-11-05T06:34:52.593Z,4.18
2022-11-05T06:35:25.381Z,4.70
2022-11-05T06:35:59.308Z,4.70
2022-11-05T06:36:31.084Z,3.92
2022-11-05T06:37:03.984Z,4.90
2022-11-05T06:37:35.902Z,4.80
2022-11-05T06:38:07.703Z,4.10
2022-11-05T06:38:40.447Z,4.80
2022-11-05T06:39:12.598Z,4.40
2022-11-05T06:39:44.371Z,4.45
2022-11-05T06:40:17.272Z,5.07
2022-11-05T06:40:49.031Z,3.58
2022-11-05T06:41:21.862Z,4.50
2022-11-05T06:42:46.388Z,4.65
2022-11-05T06:43:18.295Z,4.13
2022-11-05T06:43:50.167Z,4.65
2022-11-05T06:44:22.946Z,5.25
2022-11-05T06:44:54.769Z,4.88
2022-11-05T06:45:26.619Z,4.88
2022-11-05T06:46:02.333Z,4.55
2022-11-05T06:46:34.262Z,4.38
2022-11-05T06:47:06.670Z,5.03
2022-11-05T06:47:39.439Z,4.38
2022-11-05T06:48:11.266Z,5.10
2022-11-05T06:48:44.022Z,4.63
2022-11-05T06:49:15.803Z,4.60
2022-11-05T06:49:47.714Z,4.38
2022-11-05T06:50:21.855Z,4.32
2022-11-05T06:50:53.690Z,4.68
2022-11-05T06:51:25.508Z,5.45
2022-11-05T06:51:59.153Z,4.70
2022-11-05T06:52:31.215Z,4.47
2022-11-05T06:53:05.329Z,5.13
2022-11-05T06:53:37.140Z,5.45
2022-11-05T06:54:09.264Z,5.70
2022-11-05T06:54:43.765Z,5.78
2022-11-05T06:55:15.643Z,5.00
2022-11-05T06:55:47.863Z,4.85
2022-11-05T06:56:20.684Z,4.70
2022-11-05T06:56:52.511Z,5.03
2022-11-05T06:57:24.484Z,5.32
2022-11-05T06:57:58.052Z,5.93
2022-11-05T06:58:30.858Z,5.28
2022-11-05T06:59:02.761Z,5.72
2022-11-05T06:59:35.742Z,6.15
2022-11-05T07:00:09.057Z,6.05
2022-11-05T07:00:40.923Z,5.65
2022-11-05T07:01:13.817Z,5.80
2022-11-05T07:01:46.067Z,5.65
2022-11-05T07:02:18.249Z,4.97
2022-11-05T07:02:51.160Z,5.35
2022-11-05T07:03:22.958Z,5.45
2022-11-05T07:03:55.960Z,5.25
2022-11-05T07:04:27.788Z,6.13
2022-11-05T07:04:59.830Z,5.05
2022-11-05T07:05:34.733Z,6.00
2022-11-05T07:06:07.582Z,5.55
2022-11-05T07:06:39.391Z,6.57
2022-11-05T07:07:12.141Z,6.63
2022-11-05T07:07:45.049Z,6.25
2022-11-05T07:08:17.376Z,5.43
2022-11-05T07:08:50.143Z,6.78
2022-11-05T07:09:22.639Z,6.50
2022-11-05T07:09:54.508Z,5.13
2022-11-05T07:10:27.527Z,6.32
2022-11-05T07:10:59.666Z,4.90
2022-11-05T07:11:31.505Z,6.32
2022-11-05T07:12:04.622Z,5.90
2022-11-05T07:12:36.498Z,5.60
2022-11-05T07:13:08.944Z,5.72
2022-11-05T07:13:41.995Z,5.60
2022-11-05T07:14:13.765Z,5.97
2022-11-05T07:14:45.568Z,5.97
2022-11-05T07:15:18.472Z,6.00
2022-11-05T07:15:50.289Z,6.13
2022-11-05T07:16:23.021Z,6.13
2022-11-05T07:16:56.376Z,5.88
2022-11-05T07:17:28.200Z,5.43
2022-11-05T07:18:01.931Z,5.88
2022-11-05T07:18:33.731Z,6.03
2022-11-05T07:19:05.564Z,6.15
2022-11-05T07:19:38.321Z,6.07
2022-11-05T07:20:10.942Z,6.50
2022-11-05T07:20:44.090Z,5.50
2022-11-05T07:21:16.808Z,6.05
2022-11-05T07:21:50.709Z,5.85
2022-11-05T07:22:22.518Z,6.35
2022-11-05T07:23:02.747Z,6.20
2022-11-05T07:23:34.539Z,6.32
2022-11-05T07:24:07.485Z,6.18
2022-11-05T07:24:40.285Z,6.85
2022-11-05T07:25:12.133Z,6.35
2022-11-05T07:25:44.307Z,5.95
2022-11-05T07:26:17.096Z,6.60
2022-11-05T07:26:48.906Z,6.20
2022-11-05T07:27:20.740Z,6.20
2022-11-05T07:27:53.815Z,6.43
2022-11-05T07:28:25.635Z,6.20
2022-11-05T07:28:57.671Z,5.68
2022-11-05T07:29:30.439Z,6.18
2022-11-05T07:30:02.213Z,6.45
2022-11-05T07:30:35.636Z,5.78
2022-11-05T07:31:08.394Z,5.32
2022-11-05T07:31:40.181Z,6.22
2022-11-05T07:32:12.009Z,6.13
2022-11-05T07:32:44.776Z,5.50
2022-11-05T07:33:16.719Z,5.97
2022-11-05T07:33:48.811Z,5.95
2022-11-05T07:34:21.598Z,6.25
2022-11-05T07:34:53.386Z,6.10
2022-11-05T07:35:25.507Z,6.07
2022-11-05T07:35:59.902Z,6.70
2022-11-05T07:36:31.687Z,6.00
2022-11-05T07:37:03.508Z,7.07
2022-11-05T07:37:43.173Z,5.93
2022-11-05T07:38:15.015Z,6.00
2022-11-05T07:38:47.759Z,6.00
2022-11-05T07:39:19.758Z,5.90
2022-11-05T07:39:51.518Z,6.22
2022-11-05T07:40:26.450Z,5.95
2022-11-05T07:40:59.728Z,6.25
2022-11-05T07:41:31.554Z,5.65
2022-11-05T07:42:04.582Z,5.80
2022-11-05T07:42:36.368Z,6.47
2022-11-05T07:43:10.317Z,5.57
2022-11-05T07:43:42.462Z,6.25
2022-11-05T07:44:14.418Z,5.43
2022-11-05T07:44:47.238Z,4.72
2022-11-05T07:45:19.835Z,6.82
2022-11-05T07:45:51.617Z,6.30
2022-11-05T07:46:24.348Z,5.68
2022-11-05T07:46:56.186Z,5.53
2022-11-05T07:47:27.972Z,6.13
2022-11-05T07:48:02.484Z,5.72
2022-11-05T07:48:34.308Z,6.25
2022-11-05T07:49:06.110Z,5.68
2022-11-05T07:49:39.162Z,5.05
2022-11-05T07:50:11.426Z,5.60
2022-11-05T07:50:44.210Z,6.20
2022-11-05T07:51:17.383Z,6.30
2022-11-05T07:51:49.180Z,5.32
2022-11-05T07:52:21.952Z,5.70
2022-11-05T07:52:53.763Z,5.80
2022-11-05T07:53:26.522Z,6.13
2022-11-05T07:53:58.388Z,5.63
2022-11-05T07:54:30.225Z,5.35